sim
Sign-in with your pilot id or email,
or register
Callsign
Passwort

Schedule Details

Flight Number: DLH2265 (1)
Departure: Marseille Provence Airport (LFML) at 18:05
Arrival: Munich Airport (EDDM) at 19:40
Route: Lufthansa Passenger Schedule. Enter filed route here before submitting Pirep.

Weather Information
Getting current METAR information for LFML 240200Z AUTO 13006KT CAVOK 18/16 Q1011 TEMPO 3000 BR
Getting current METAR information for EDDM 240220Z VRB02KT CAVOK 10/09 Q1009 NOSIG

Schedule Frequency

Route Map